createdAt,value
2023-03-12T00:00:18.781Z,98901.22
2023-03-12T00:05:22.748Z,98874.69
2023-03-12T00:10:27.056Z,98883.00
2023-03-12T00:15:30.128Z,98881.06
2023-03-12T00:20:55.472Z,98871.94
2023-03-12T00:26:04.034Z,98882.56
2023-03-12T00:31:23.307Z,98872.72
2023-03-12T00:36:28.446Z,98878.06
2023-03-12T00:41:31.652Z,98867.88
2023-03-12T00:46:34.675Z,98859.16
2023-03-12T00:51:38.913Z,98871.28
2023-03-12T00:56:41.713Z,98846.56
2023-03-12T01:01:45.580Z,98845.13
2023-03-12T01:06:48.511Z,98848.44
2023-03-12T01:11:51.290Z,98833.69
2023-03-12T01:16:54.118Z,98816.25
2023-03-12T01:21:56.911Z,98818.19
2023-03-12T01:27:00.229Z,98834.22
2023-03-12T01:32:03.161Z,98833.47
2023-03-12T01:37:07.395Z,98831.88
2023-03-12T01:42:10.289Z,98829.63
2023-03-12T01:47:13.180Z,98819.31
2023-03-12T01:52:25.134Z,98810.59
2023-03-12T01:57:44.086Z,98802.66
2023-03-12T02:02:49.160Z,98802.72
2023-03-12T02:07:57.494Z,98795.13
2023-03-12T02:13:00.301Z,98789.81
2023-03-12T02:18:08.552Z,98769.06
2023-03-12T02:23:32.600Z,98768.69
2023-03-12T02:28:42.944Z,98751.59
2023-03-12T02:33:46.701Z,98764.91
2023-03-12T02:38:52.371Z,98752.31
2023-03-12T02:44:39.258Z,98757.28
2023-03-12T02:49:42.185Z,98757.69
2023-03-12T02:54:45.477Z,98753.91
2023-03-12T02:59:48.366Z,98742.94
2023-03-12T03:04:52.586Z,98731.09
2023-03-12T03:09:55.460Z,98737.19
2023-03-12T03:14:58.909Z,98729.22
2023-03-12T03:20:01.873Z,98713.56
2023-03-12T03:25:06.978Z,98712.47
2023-03-12T03:30:12.233Z,98693.06
2023-03-12T03:35:34.907Z,98700.72
2023-03-12T03:40:38.077Z,98693.50
2023-03-12T03:45:41.203Z,98699.13
2023-03-12T03:50:44.173Z,98696.53
2023-03-12T03:56:10.733Z,98683.22
2023-03-12T04:01:17.483Z,98684.41
2023-03-12T04:06:22.265Z,98688.59
2023-03-12T04:11:25.548Z,98678.72
2023-03-12T04:16:29.548Z,98666.56
2023-03-12T04:21:50.622Z,98664.25
2023-03-12T04:27:11.744Z,98658.97
2023-03-12T04:32:16.294Z,98666.22
2023-03-12T04:37:37.474Z,98657.53
2023-03-12T04:42:40.412Z,98656.75
2023-03-12T04:47:44.214Z,98648.44
2023-03-12T04:52:47.774Z,98660.63
2023-03-12T04:57:50.819Z,98651.09
2023-03-12T05:02:53.957Z,98635.50
2023-03-12T05:07:57.029Z,98629.03
2023-03-12T05:13:00.344Z,98619.56
2023-03-12T05:18:03.480Z,98603.59
2023-03-12T05:23:06.740Z,98626.78
2023-03-12T05:28:09.802Z,98609.28
2023-03-12T05:33:15.018Z,98619.56
2023-03-12T05:38:18.130Z,98615.00
2023-03-12T05:43:21.627Z,98622.63
2023-03-12T05:48:24.751Z,98603.59
2023-03-12T05:53:46.358Z,98607.81
2023-03-12T05:59:07.872Z,98604.75
2023-03-12T06:04:10.853Z,98588.41
2023-03-12T06:09:32.345Z,98570.50
2023-03-12T06:14:35.317Z,98577.34
2023-03-12T06:19:38.456Z,98544.22
2023-03-12T06:24:42.826Z,98527.47
2023-03-12T06:29:47.414Z,98509.53
2023-03-12T06:34:50.605Z,98517.53
2023-03-12T06:39:54.595Z,98515.25
2023-03-12T06:44:57.438Z,98485.16
2023-03-12T06:50:00.583Z,98485.47
2023-03-12T06:55:03.615Z,98467.94
2023-03-12T07:00:08.281Z,98447.31
2023-03-12T07:05:11.248Z,98421.78
2023-03-12T07:10:14.203Z,98408.03
2023-03-12T07:15:17.175Z,98388.50
2023-03-12T07:20:20.024Z,98381.59
2023-03-12T07:25:23.018Z,98356.34
2023-03-12T07:30:25.903Z,98446.00
2023-03-12T07:35:30.166Z,98423.84
2023-03-12T07:40:56.092Z,98411.97
2023-03-12T07:46:17.598Z,98445.47
2023-03-12T07:51:38.997Z,98447.41
2023-03-12T07:56:41.967Z,98432.13
2023-03-12T08:01:46.423Z,98422.88
2023-03-12T08:06:49.766Z,98427.34
2023-03-12T08:11:52.756Z,98436.78
2023-03-12T08:16:55.618Z,98416.81
2023-03-12T08:21:58.564Z,98406.47
2023-03-12T08:27:01.891Z,98401.47
2023-03-12T08:32:05.812Z,98398.34
2023-03-12T08:37:09.170Z,98384.56
2023-03-12T08:42:30.833Z,98384.06
2023-03-12T08:47:33.758Z,98381.00
2023-03-12T08:52:36.717Z,98358.81
2023-03-12T08:57:40.215Z,98353.38
2023-03-12T09:02:47.316Z,98348.03
2023-03-12T09:07:50.418Z,98357.47
2023-03-12T09:12:53.265Z,98342.19
2023-03-12T09:17:56.304Z,98327.97
2023-03-12T09:22:59.130Z,98327.19
2023-03-12T09:28:02.751Z,98320.56
2023-03-12T09:33:05.857Z,98324.31
2023-03-12T09:38:13.012Z,98297.94
2023-03-12T09:43:52.048Z,98291.25
2023-03-12T09:48:59.105Z,98282.03
2023-03-12T09:54:06.558Z,98286.59
2023-03-12T09:59:13.257Z,98283.88
2023-03-12T10:04:29.322Z,98279.31
2023-03-12T10:10:04.648Z,98272.25
2023-03-12T10:15:28.941Z,98269.56
2023-03-12T10:21:20.411Z,98247.84
2023-03-12T10:26:27.997Z,98263.38
2023-03-12T10:31:41.323Z,98235.06
2023-03-12T10:36:46.355Z,98244.13
2023-03-12T10:41:50.896Z,98216.75
2023-03-12T10:47:00.091Z,98229.44
2023-03-12T10:52:14.801Z,98206.50
2023-03-12T10:57:18.612Z,98195.66
2023-03-12T11:02:46.145Z,98194.97
2023-03-12T11:07:49.456Z,98193.94
2023-03-12T11:13:04.995Z,98207.41
2023-03-12T11:18:32.436Z,98190.44
2023-03-12T11:23:48.466Z,98187.19
2023-03-12T11:29:13.351Z,98175.00
2023-03-12T11:34:27.933Z,98154.47
2023-03-12T11:39:38.115Z,98146.50
2023-03-12T11:45:10.162Z,98131.41
2023-03-12T11:50:41.611Z,98110.53
2023-03-12T11:56:18.915Z,98089.47
2023-03-12T12:01:29.495Z,98061.31
2023-03-12T12:06:35.374Z,98076.66
2023-03-12T12:11:54.856Z,98073.78
2023-03-12T12:17:06.393Z,98072.97
2023-03-12T12:22:34.619Z,98068.03
2023-03-12T12:27:48.514Z,98061.16
2023-03-12T12:33:09.668Z,98057.47
2023-03-12T12:38:30.680Z,98071.59
2023-03-12T12:43:37.105Z,98073.19
2023-03-12T12:48:46.474Z,98071.66
2023-03-12T12:54:10.619Z,98068.66
2023-03-12T12:59:38.785Z,98070.16
2023-03-12T13:04:42.084Z,98090.75
2023-03-12T13:09:49.078Z,98075.72
2023-03-12T13:14:53.947Z,98086.63
2023-03-12T13:20:11.233Z,98069.72
2023-03-12T13:25:41.414Z,98066.47
2023-03-12T13:30:50.331Z,98059.94
2023-03-12T13:36:12.083Z,98057.94
2023-03-12T13:42:02.214Z,98054.28
2023-03-12T13:47:11.414Z,98042.25
2023-03-12T13:52:15.488Z,98047.03
2023-03-12T13:57:24.244Z,98053.75
2023-03-12T14:02:36.962Z,98050.66
2023-03-12T14:08:13.699Z,98074.72
2023-03-12T14:13:25.479Z,98067.66
2023-03-12T14:18:34.062Z,98072.28
2023-03-12T14:23:41.495Z,98067.84
2023-03-12T14:28:54.979Z,98062.06
2023-03-12T14:34:33.662Z,98059.63
2023-03-12T14:39:55.971Z,98063.47
2023-03-12T14:45:02.303Z,98063.41
2023-03-12T14:50:06.733Z,98078.31
2023-03-12T14:55:15.560Z,98057.53
2023-03-12T15:00:27.249Z,98051.41
2023-03-12T15:05:33.053Z,98073.72
2023-03-12T15:10:37.081Z,98080.50
2023-03-12T15:15:41.913Z,98082.16
2023-03-12T15:20:46.000Z,98097.75
2023-03-12T15:25:49.115Z,98084.34
2023-03-12T15:31:21.340Z,98089.88
2023-03-12T15:36:28.078Z,98082.16
2023-03-12T15:41:51.753Z,98075.53
2023-03-12T15:46:57.199Z,98083.91
2023-03-12T15:52:18.777Z,98098.66
2023-03-12T15:57:24.927Z,98097.22
2023-03-12T16:02:40.053Z,98094.91
2023-03-12T16:07:42.930Z,98095.50
2023-03-12T16:12:47.036Z,98088.50
2023-03-12T16:17:49.862Z,98086.94
2023-03-12T16:22:52.790Z,98091.94
2023-03-12T16:27:58.163Z,98099.16
2023-03-12T16:33:03.576Z,98087.69
2023-03-12T16:38:07.559Z,98078.38
2023-03-12T16:43:18.992Z,98088.66
2023-03-12T16:48:24.515Z,98092.53
2023-03-12T16:53:27.538Z,98087.16
2023-03-12T16:58:30.945Z,98103.19
2023-03-12T17:03:39.138Z,98099.75
2023-03-12T17:08:43.411Z,98111.06
2023-03-12T17:13:53.539Z,98106.97
2023-03-12T17:18:58.141Z,98104.94
2023-03-12T17:24:01.208Z,98109.88
2023-03-12T17:29:04.220Z,98091.03
2023-03-12T17:34:07.591Z,98098.19
2023-03-12T17:39:11.011Z,98101.63
2023-03-12T17:44:16.163Z,98105.50
2023-03-12T17:49:19.186Z,98097.97
2023-03-12T17:54:22.555Z,98097.13
2023-03-12T17:59:25.631Z,98098.72
2023-03-12T18:04:28.622Z,98098.41
2023-03-12T18:09:31.580Z,98103.25
2023-03-12T18:14:53.638Z,98099.47
2023-03-12T18:19:56.753Z,98095.81
2023-03-12T18:24:59.742Z,98095.06
2023-03-12T18:30:02.644Z,98092.44
2023-03-12T18:35:08.060Z,98096.56
2023-03-12T18:40:11.628Z,98118.38
2023-03-12T18:45:15.787Z,98113.00
2023-03-12T18:50:18.811Z,98119.50
2023-03-12T18:55:21.690Z,98129.84
2023-03-12T19:00:29.308Z,98123.81
2023-03-12T19:05:32.217Z,98128.91
2023-03-12T19:10:35.032Z,98125.31
2023-03-12T19:15:39.604Z,98131.78
2023-03-12T19:20:42.509Z,98136.03
2023-03-12T19:25:45.449Z,98126.16
2023-03-12T19:30:48.334Z,98134.22
2023-03-12T19:35:51.323Z,98140.66
2023-03-12T19:40:56.135Z,98133.78
2023-03-12T19:45:59.370Z,98144.00
2023-03-12T19:51:06.991Z,98128.84
2023-03-12T19:56:10.026Z,98131.94
2023-03-12T20:01:12.874Z,98147.50
2023-03-12T20:06:15.823Z,98152.88
2023-03-12T20:11:18.754Z,98155.34
2023-03-12T20:16:21.921Z,98153.50
2023-03-12T20:21:24.931Z,98159.03
2023-03-12T20:26:27.815Z,98162.75
2023-03-12T20:31:30.842Z,98163.31
2023-03-12T20:36:33.778Z,98153.69
2023-03-12T20:41:36.641Z,98145.66
2023-03-12T20:46:39.409Z,98157.13
2023-03-12T20:51:43.117Z,98151.81
2023-03-12T20:56:46.126Z,98150.31
2023-03-12T21:01:49.041Z,98156.09
2023-03-12T21:06:51.978Z,98157.97
2023-03-12T21:11:54.953Z,98184.31
2023-03-12T21:16:58.200Z,98171.91
2023-03-12T21:22:01.128Z,98182.97
2023-03-12T21:27:04.117Z,98184.78
2023-03-12T21:32:06.993Z,98179.41
2023-03-12T21:37:09.922Z,98200.63
2023-03-12T21:42:12.818Z,98215.63
2023-03-12T21:47:37.079Z,98204.06
2023-03-12T21:52:43.248Z,98219.09
2023-03-12T21:57:46.362Z,98226.81
2023-03-12T22:02:50.520Z,98235.97
2023-03-12T22:07:53.271Z,98237.59
2023-03-12T22:12:56.183Z,98244.50
2023-03-12T22:17:59.241Z,98242.91
2023-03-12T22:23:02.383Z,98247.03
2023-03-12T22:28:05.459Z,98242.91
2023-03-12T22:33:08.533Z,98245.78
2023-03-12T22:38:11.322Z,98251.56
2023-03-12T22:43:14.542Z,98258.41
2023-03-12T22:48:17.275Z,98274.16
2023-03-12T22:53:20.538Z,98258.59
2023-03-12T22:58:23.311Z,98271.56
2023-03-12T23:03:26.708Z,98277.44
2023-03-12T23:08:30.304Z,98291.22
2023-03-12T23:13:35.846Z,98290.47
2023-03-12T23:18:39.271Z,98303.53
2023-03-12T23:23:43.643Z,98303.94
2023-03-12T23:28:47.615Z,98308.28
2023-03-12T23:33:51.054Z,98299.53
2023-03-12T23:39:13.076Z,98307.59
2023-03-12T23:44:16.052Z,98294.34
2023-03-12T23:49:19.205Z,98307.66
2023-03-12T23:54:22.052Z,98302.72
2023-03-12T23:59:24.930Z,98311.09
